sensor_id;sensor_type;location;lat;lon;timestamp;P1;durP1;ratioP1;P2;durP2;ratioP2
73642;SDS011;61938;48.652;9.292;2023-09-08T00:00:50;15.57;;;9.93;;
73642;SDS011;61938;48.652;9.292;2023-09-08T00:03:16;15.40;;;9.55;;
73642;SDS011;61938;48.652;9.292;2023-09-08T00:05:41;14.43;;;9.52;;
73642;SDS011;61938;48.652;9.292;2023-09-08T00:08:07;13.07;;;8.95;;
73642;SDS011;61938;48.652;9.292;2023-09-08T00:10:32;14.40;;;10.20;;
73642;SDS011;61938;48.652;9.292;2023-09-08T00:12:58;15.57;;;10.73;;
73642;SDS011;61938;48.652;9.292;2023-09-08T00:15:23;20.48;;;10.82;;
73642;SDS011;61938;48.652;9.292;2023-09-08T00:17:49;20.17;;;10.43;;
73642;SDS011;61938;48.652;9.292;2023-09-08T00:20:14;17.42;;;10.57;;
73642;SDS011;61938;48.652;9.292;2023-09-08T00:22:40;13.93;;;10.32;;
73642;SDS011;61938;48.652;9.292;2023-09-08T00:25:06;15.82;;;11.80;;
73642;SDS011;61938;48.652;9.292;2023-09-08T00:27:31;17.75;;;11.38;;
73642;SDS011;61938;48.652;9.292;2023-09-08T00:29:57;17.33;;;11.80;;
73642;SDS011;61938;48.652;9.292;2023-09-08T00:32:23;18.70;;;11.05;;
73642;SDS011;61938;48.652;9.292;2023-09-08T00:34:49;19.95;;;12.38;;
73642;SDS011;61938;48.652;9.292;2023-09-08T00:37:14;16.60;;;11.32;;
73642;SDS011;61938;48.652;9.292;2023-09-08T00:39:40;19.73;;;11.75;;
73642;SDS011;61938;48.652;9.292;2023-09-08T00:42:05;17.95;;;11.82;;
73642;SDS011;61938;48.652;9.292;2023-09-08T00:44:32;17.15;;;11.15;;
73642;SDS011;61938;48.652;9.292;2023-09-08T00:46:57;24.85;;;12.10;;
73642;SDS011;61938;48.652;9.292;2023-09-08T00:49:23;18.33;;;11.23;;
73642;SDS011;61938;48.652;9.292;2023-09-08T00:51:49;20.50;;;10.95;;
73642;SDS011;61938;48.652;9.292;2023-09-08T00:54:14;21.25;;;11.82;;
73642;SDS011;61938;48.652;9.292;2023-09-08T00:56:40;18.38;;;11.45;;
73642;SDS011;61938;48.652;9.292;2023-09-08T00:59:06;20.23;;;12.50;;
73642;SDS011;61938;48.652;9.292;2023-09-08T01:01:32;19.27;;;12.27;;
73642;SDS011;61938;48.652;9.292;2023-09-08T01:04:00;17.30;;;12.38;;
73642;SDS011;61938;48.652;9.292;2023-09-08T01:06:26;22.02;;;11.52;;
73642;SDS011;61938;48.652;9.292;2023-09-08T01:08:52;15.98;;;11.35;;
73642;SDS011;61938;48.652;9.292;2023-09-08T01:11:19;18.48;;;11.70;;
73642;SDS011;61938;48.652;9.292;2023-09-08T01:13:45;19.70;;;11.45;;
73642;SDS011;61938;48.652;9.292;2023-09-08T01:16:10;18.23;;;12.02;;
73642;SDS011;61938;48.652;9.292;2023-09-08T01:18:36;18.00;;;11.40;;
73642;SDS011;61938;48.652;9.292;2023-09-08T01:23:55;16.17;;;12.07;;
73642;SDS011;61938;48.652;9.292;2023-09-08T01:26:22;18.90;;;11.00;;
73642;SDS011;61938;48.652;9.292;2023-09-08T01:28:51;16.02;;;10.98;;
73642;SDS011;61938;48.652;9.292;2023-09-08T01:31:18;21.17;;;10.88;;
73642;SDS011;61938;48.652;9.292;2023-09-08T01:33:44;15.63;;;10.27;;
73642;SDS011;61938;48.652;9.292;2023-09-08T01:36:10;20.83;;;10.70;;
73642;SDS011;61938;48.652;9.292;2023-09-08T01:38:36;17.23;;;10.45;;
73642;SDS011;61938;48.652;9.292;2023-09-08T01:41:01;14.25;;;9.68;;
73642;SDS011;61938;48.652;9.292;2023-09-08T01:43:27;14.75;;;9.90;;
73642;SDS011;61938;48.652;9.292;2023-09-08T01:45:53;17.40;;;9.73;;
73642;SDS011;61938;48.652;9.292;2023-09-08T01:48:18;13.43;;;9.73;;
73642;SDS011;61938;48.652;9.292;2023-09-08T01:50:44;23.27;;;10.88;;
73642;SDS011;61938;48.652;9.292;2023-09-08T01:53:11;14.07;;;9.70;;
73642;SDS011;61938;48.652;9.292;2023-09-08T01:55:36;17.13;;;10.05;;
73642;SDS011;61938;48.652;9.292;2023-09-08T01:58:01;15.80;;;9.45;;
73642;SDS011;61938;48.652;9.292;2023-09-08T02:00:27;15.13;;;9.90;;
73642;SDS011;61938;48.652;9.292;2023-09-08T02:02:52;15.30;;;10.02;;
73642;SDS011;61938;48.652;9.292;2023-09-08T02:05:18;18.50;;;10.48;;
73642;SDS011;61938;48.652;9.292;2023-09-08T02:07:44;14.73;;;9.73;;
73642;SDS011;61938;48.652;9.292;2023-09-08T02:10:09;14.52;;;9.13;;
73642;SDS011;61938;48.652;9.292;2023-09-08T02:12:35;16.67;;;10.05;;
73642;SDS011;61938;48.652;9.292;2023-09-08T02:15:01;18.73;;;9.98;;
73642;SDS011;61938;48.652;9.292;2023-09-08T02:17:26;17.63;;;10.82;;
73642;SDS011;61938;48.652;9.292;2023-09-08T02:19:52;17.38;;;10.95;;
73642;SDS011;61938;48.652;9.292;2023-09-08T02:22:18;12.85;;;9.38;;
73642;SDS011;61938;48.652;9.292;2023-09-08T02:24:43;16.10;;;10.40;;
73642;SDS011;61938;48.652;9.292;2023-09-08T02:27:09;14.70;;;9.73;;
73642;SDS011;61938;48.652;9.292;2023-09-08T02:29:34;17.48;;;10.70;;
73642;SDS011;61938;48.652;9.292;2023-09-08T02:32:00;16.75;;;10.90;;
73642;SDS011;61938;48.652;9.292;2023-09-08T02:34:25;15.10;;;10.88;;
73642;SDS011;61938;48.652;9.292;2023-09-08T02:36:51;21.90;;;11.27;;
73642;SDS011;61938;48.652;9.292;2023-09-08T02:39:16;14.60;;;10.35;;
73642;SDS011;61938;48.652;9.292;2023-09-08T02:41:42;14.95;;;9.93;;
73642;SDS011;61938;48.652;9.292;2023-09-08T02:44:08;19.70;;;10.57;;
73642;SDS011;61938;48.652;9.292;2023-09-08T02:46:33;17.67;;;11.15;;
73642;SDS011;61938;48.652;9.292;2023-09-08T02:48:59;15.20;;;9.55;;
73642;SDS011;61938;48.652;9.292;2023-09-08T02:51:24;15.57;;;10.50;;
73642;SDS011;61938;48.652;9.292;2023-09-08T02:53:49;16.27;;;11.45;;
73642;SDS011;61938;48.652;9.292;2023-09-08T02:56:15;17.42;;;11.35;;
73642;SDS011;61938;48.652;9.292;2023-09-08T02:58:40;18.20;;;10.30;;
73642;SDS011;61938;48.652;9.292;2023-09-08T03:01:16;19.80;;;11.18;;
73642;SDS011;61938;48.652;9.292;2023-09-08T03:03:44;26.33;;;11.65;;
73642;SDS011;61938;48.652;9.292;2023-09-08T03:06:10;18.38;;;11.00;;
73642;SDS011;61938;48.652;9.292;2023-09-08T03:08:35;16.42;;;11.57;;
73642;SDS011;61938;48.652;9.292;2023-09-08T03:11:02;15.40;;;10.57;;
73642;SDS011;61938;48.652;9.292;2023-09-08T03:13:29;24.00;;;11.43;;
73642;SDS011;61938;48.652;9.292;2023-09-08T03:15:55;21.83;;;13.10;;
73642;SDS011;61938;48.652;9.292;2023-09-08T03:18:21;16.88;;;11.48;;
73642;SDS011;61938;48.652;9.292;2023-09-08T03:20:50;17.00;;;10.77;;
73642;SDS011;61938;48.652;9.292;2023-09-08T03:23:16;20.45;;;11.27;;
73642;SDS011;61938;48.652;9.292;2023-09-08T03:25:42;18.50;;;10.88;;
73642;SDS011;61938;48.652;9.292;2023-09-08T03:28:07;19.20;;;11.18;;
73642;SDS011;61938;48.652;9.292;2023-09-08T03:30:33;15.75;;;11.02;;
73642;SDS011;61938;48.652;9.292;2023-09-08T03:32:59;17.83;;;11.68;;
73642;SDS011;61938;48.652;9.292;2023-09-08T03:35:24;18.85;;;11.20;;
73642;SDS011;61938;48.652;9.292;2023-09-08T03:37:50;15.98;;;10.48;;
73642;SDS011;61938;48.652;9.292;2023-09-08T03:40:15;14.27;;;10.13;;
73642;SDS011;61938;48.652;9.292;2023-09-08T03:42:41;20.52;;;12.27;;
73642;SDS011;61938;48.652;9.292;2023-09-08T03:45:07;16.30;;;11.02;;
73642;SDS011;61938;48.652;9.292;2023-09-08T03:47:33;18.92;;;11.38;;
73642;SDS011;61938;48.652;9.292;2023-09-08T03:49:58;22.02;;;11.75;;
73642;SDS011;61938;48.652;9.292;2023-09-08T03:52:24;17.50;;;11.57;;
73642;SDS011;61938;48.652;9.292;2023-09-08T03:54:50;16.58;;;11.48;;
73642;SDS011;61938;48.652;9.292;2023-09-08T03:57:15;17.50;;;10.52;;
73642;SDS011;61938;48.652;9.292;2023-09-08T03:59:41;19.88;;;12.07;;
73642;SDS011;61938;48.652;9.292;2023-09-08T04:02:06;19.77;;;11.68;;
73642;SDS011;61938;48.652;9.292;2023-09-08T04:04:32;21.63;;;11.10;;
73642;SDS011;61938;48.652;9.292;2023-09-08T04:06:57;19.10;;;10.48;;
73642;SDS011;61938;48.652;9.292;2023-09-08T04:09:23;17.65;;;10.93;;
73642;SDS011;61938;48.652;9.292;2023-09-08T04:11:48;16.45;;;11.30;;
73642;SDS011;61938;48.652;9.292;2023-09-08T04:14:14;16.70;;;11.10;;
73642;SDS011;61938;48.652;9.292;2023-09-08T04:16:39;22.48;;;10.77;;
73642;SDS011;61938;48.652;9.292;2023-09-08T04:19:05;14.90;;;10.43;;
73642;SDS011;61938;48.652;9.292;2023-09-08T04:21:30;17.20;;;10.85;;
73642;SDS011;61938;48.652;9.292;2023-09-08T04:23:56;18.88;;;10.35;;
73642;SDS011;61938;48.652;9.292;2023-09-08T04:26:22;38.38;;;10.63;;
73642;SDS011;61938;48.652;9.292;2023-09-08T04:28:47;15.23;;;10.13;;
73642;SDS011;61938;48.652;9.292;2023-09-08T04:31:13;20.10;;;11.20;;
73642;SDS011;61938;48.652;9.292;2023-09-08T04:33:38;20.55;;;10.30;;
73642;SDS011;61938;48.652;9.292;2023-09-08T04:36:04;19.65;;;10.52;;
73642;SDS011;61938;48.652;9.292;2023-09-08T04:38:29;19.63;;;10.75;;
73642;SDS011;61938;48.652;9.292;2023-09-08T04:40:56;18.70;;;11.48;;
73642;SDS011;61938;48.652;9.292;2023-09-08T04:43:21;16.92;;;10.65;;
73642;SDS011;61938;48.652;9.292;2023-09-08T04:45:47;16.17;;;10.55;;
73642;SDS011;61938;48.652;9.292;2023-09-08T04:48:13;18.08;;;11.85;;
73642;SDS011;61938;48.652;9.292;2023-09-08T04:50:38;18.65;;;11.80;;
73642;SDS011;61938;48.652;9.292;2023-09-08T04:53:04;18.70;;;11.43;;
73642;SDS011;61938;48.652;9.292;2023-09-08T04:55:29;16.30;;;10.98;;
73642;SDS011;61938;48.652;9.292;2023-09-08T04:57:55;20.70;;;11.00;;
73642;SDS011;61938;48.652;9.292;2023-09-08T05:00:20;18.40;;;10.57;;
73642;SDS011;61938;48.652;9.292;2023-09-08T05:02:46;19.48;;;11.77;;
73642;SDS011;61938;48.652;9.292;2023-09-08T05:05:12;19.80;;;11.73;;
73642;SDS011;61938;48.652;9.292;2023-09-08T05:07:37;19.05;;;11.65;;
73642;SDS011;61938;48.652;9.292;2023-09-08T05:10:03;20.55;;;11.68;;
73642;SDS011;61938;48.652;9.292;2023-09-08T05:12:29;21.20;;;12.68;;
73642;SDS011;61938;48.652;9.292;2023-09-08T05:14:54;21.05;;;12.40;;
73642;SDS011;61938;48.652;9.292;2023-09-08T05:17:24;21.08;;;11.70;;
73642;SDS011;61938;48.652;9.292;2023-09-08T05:19:50;20.25;;;11.75;;
73642;SDS011;61938;48.652;9.292;2023-09-08T05:22:16;20.10;;;11.55;;
73642;SDS011;61938;48.652;9.292;2023-09-08T05:24:42;19.15;;;10.95;;
73642;SDS011;61938;48.652;9.292;2023-09-08T05:27:07;20.08;;;11.15;;
73642;SDS011;61938;48.652;9.292;2023-09-08T05:29:33;20.17;;;12.52;;
73642;SDS011;61938;48.652;9.292;2023-09-08T05:31:58;23.15;;;11.35;;
73642;SDS011;61938;48.652;9.292;2023-09-08T05:34:24;19.50;;;12.70;;
73642;SDS011;61938;48.652;9.292;2023-09-08T05:36:49;25.38;;;14.30;;
73642;SDS011;61938;48.652;9.292;2023-09-08T05:39:15;22.77;;;12.20;;
73642;SDS011;61938;48.652;9.292;2023-09-08T05:41:42;20.98;;;12.07;;
73642;SDS011;61938;48.652;9.292;2023-09-08T05:44:08;30.55;;;12.38;;
73642;SDS011;61938;48.652;9.292;2023-09-08T05:46:33;19.65;;;12.95;;
73642;SDS011;61938;48.652;9.292;2023-09-08T05:48:58;28.05;;;12.55;;
73642;SDS011;61938;48.652;9.292;2023-09-08T05:51:24;19.05;;;11.68;;
73642;SDS011;61938;48.652;9.292;2023-09-08T05:53:49;16.73;;;10.85;;
73642;SDS011;61938;48.652;9.292;2023-09-08T05:56:18;17.38;;;11.00;;
73642;SDS011;61938;48.652;9.292;2023-09-08T05:58:44;20.23;;;12.23;;
73642;SDS011;61938;48.652;9.292;2023-09-08T06:01:09;21.88;;;12.30;;
73642;SDS011;61938;48.652;9.292;2023-09-08T06:03:35;20.92;;;12.45;;
73642;SDS011;61938;48.652;9.292;2023-09-08T06:06:00;22.50;;;11.80;;
73642;SDS011;61938;48.652;9.292;2023-09-08T06:08:26;23.83;;;13.30;;
73642;SDS011;61938;48.652;9.292;2023-09-08T06:10:51;23.45;;;13.05;;
73642;SDS011;61938;48.652;9.292;2023-09-08T06:13:17;23.55;;;12.50;;
73642;SDS011;61938;48.652;9.292;2023-09-08T06:15:42;20.17;;;12.13;;
73642;SDS011;61938;48.652;9.292;2023-09-08T06:18:08;23.60;;;13.27;;
73642;SDS011;61938;48.652;9.292;2023-09-08T06:20:33;20.35;;;12.85;;
73642;SDS011;61938;48.652;9.292;2023-09-08T06:22:59;18.65;;;12.95;;
73642;SDS011;61938;48.652;9.292;2023-09-08T06:25:24;21.33;;;12.45;;
73642;SDS011;61938;48.652;9.292;2023-09-08T06:27:53;20.70;;;12.85;;
73642;SDS011;61938;48.652;9.292;2023-09-08T06:30:18;20.90;;;13.32;;
73642;SDS011;61938;48.652;9.292;2023-09-08T06:32:44;17.85;;;12.15;;
73642;SDS011;61938;48.652;9.292;2023-09-08T06:35:10;16.58;;;11.63;;
73642;SDS011;61938;48.652;9.292;2023-09-08T06:37:36;19.10;;;12.43;;
73642;SDS011;61938;48.652;9.292;2023-09-08T06:40:03;24.48;;;13.43;;
73642;SDS011;61938;48.652;9.292;2023-09-08T06:42:29;22.83;;;13.95;;
73642;SDS011;61938;48.652;9.292;2023-09-08T06:44:55;20.23;;;13.20;;
73642;SDS011;61938;48.652;9.292;2023-09-08T06:47:20;23.98;;;13.85;;
73642;SDS011;61938;48.652;9.292;2023-09-08T06:49:46;19.75;;;13.05;;
73642;SDS011;61938;48.652;9.292;2023-09-08T06:52:12;19.85;;;13.82;;
73642;SDS011;61938;48.652;9.292;2023-09-08T06:54:37;19.13;;;13.75;;
73642;SDS011;61938;48.652;9.292;2023-09-08T06:57:03;21.35;;;13.07;;
73642;SDS011;61938;48.652;9.292;2023-09-08T06:59:28;24.05;;;12.85;;
73642;SDS011;61938;48.652;9.292;2023-09-08T07:01:54;20.85;;;13.23;;
73642;SDS011;61938;48.652;9.292;2023-09-08T07:04:19;19.52;;;12.93;;
73642;SDS011;61938;48.652;9.292;2023-09-08T07:06:45;25.73;;;13.45;;
73642;SDS011;61938;48.652;9.292;2023-09-08T07:09:11;25.98;;;13.23;;
73642;SDS011;61938;48.652;9.292;2023-09-08T07:11:37;24.70;;;13.32;;
73642;SDS011;61938;48.652;9.292;2023-09-08T07:14:02;18.55;;;13.02;;
73642;SDS011;61938;48.652;9.292;2023-09-08T07:16:28;22.40;;;13.38;;
73642;SDS011;61938;48.652;9.292;2023-09-08T07:18:54;22.15;;;13.02;;
73642;SDS011;61938;48.652;9.292;2023-09-08T07:21:19;18.00;;;13.52;;
73642;SDS011;61938;48.652;9.292;2023-09-08T07:23:45;21.13;;;12.60;;
73642;SDS011;61938;48.652;9.292;2023-09-08T07:26:10;20.35;;;13.13;;
73642;SDS011;61938;48.652;9.292;2023-09-08T07:28:36;28.67;;;12.07;;
73642;SDS011;61938;48.652;9.292;2023-09-08T07:31:02;21.08;;;11.00;;
73642;SDS011;61938;48.652;9.292;2023-09-08T07:33:28;18.33;;;10.98;;
73642;SDS011;61938;48.652;9.292;2023-09-08T07:35:54;15.57;;;11.30;;
73642;SDS011;61938;48.652;9.292;2023-09-08T07:38:19;19.08;;;11.27;;
73642;SDS011;61938;48.652;9.292;2023-09-08T07:40:45;15.45;;;11.05;;
73642;SDS011;61938;48.652;9.292;2023-09-08T07:43:10;20.08;;;11.60;;
73642;SDS011;61938;48.652;9.292;2023-09-08T07:45:36;16.00;;;11.00;;
73642;SDS011;61938;48.652;9.292;2023-09-08T07:48:01;15.57;;;10.60;;
73642;SDS011;61938;48.652;9.292;2023-09-08T07:50:27;16.67;;;11.00;;
73642;SDS011;61938;48.652;9.292;2023-09-08T07:52:54;14.63;;;9.20;;
73642;SDS011;61938;48.652;9.292;2023-09-08T07:55:21;22.98;;;9.98;;
73642;SDS011;61938;48.652;9.292;2023-09-08T07:57:48;22.52;;;9.73;;
73642;SDS011;61938;48.652;9.292;2023-09-08T08:00:14;14.35;;;9.20;;
73642;SDS011;61938;48.652;9.292;2023-09-08T08:02:47;14.38;;;9.57;;
73642;SDS011;61938;48.652;9.292;2023-09-08T08:05:14;17.70;;;9.18;;
73642;SDS011;61938;48.652;9.292;2023-09-08T08:07:40;12.98;;;8.50;;
73642;SDS011;61938;48.652;9.292;2023-09-08T08:10:08;11.82;;;8.35;;
73642;SDS011;61938;48.652;9.292;2023-09-08T08:12:34;12.65;;;8.77;;
73642;SDS011;61938;48.652;9.292;2023-09-08T08:15:00;16.73;;;8.38;;
73642;SDS011;61938;48.652;9.292;2023-09-08T08:17:26;18.73;;;8.50;;
73642;SDS011;61938;48.652;9.292;2023-09-08T08:19:53;12.52;;;8.23;;
73642;SDS011;61938;48.652;9.292;2023-09-08T08:22:19;16.98;;;8.73;;
73642;SDS011;61938;48.652;9.292;2023-09-08T08:24:44;13.70;;;8.75;;
73642;SDS011;61938;48.652;9.292;2023-09-08T08:27:10;20.27;;;9.40;;
73642;SDS011;61938;48.652;9.292;2023-09-08T08:29:35;16.33;;;8.52;;
73642;SDS011;61938;48.652;9.292;2023-09-08T08:32:01;11.80;;;8.00;;
73642;SDS011;61938;48.652;9.292;2023-09-08T08:34:27;12.85;;;9.05;;
73642;SDS011;61938;48.652;9.292;2023-09-08T08:36:52;10.60;;;8.35;;
73642;SDS011;61938;48.652;9.292;2023-09-08T08:39:18;13.98;;;8.30;;
73642;SDS011;61938;48.652;9.292;2023-09-08T08:41:44;13.40;;;7.72;;
73642;SDS011;61938;48.652;9.292;2023-09-08T08:44:09;13.48;;;8.05;;
73642;SDS011;61938;48.652;9.292;2023-09-08T08:46:38;15.63;;;8.20;;
73642;SDS011;61938;48.652;9.292;2023-09-08T08:51:32;10.50;;;7.32;;
73642;SDS011;61938;48.652;9.292;2023-09-08T08:53:59;10.75;;;7.40;;
73642;SDS011;61938;48.652;9.292;2023-09-08T08:56:29;11.98;;;7.93;;
73642;SDS011;61938;48.652;9.292;2023-09-08T08:58:55;11.27;;;8.32;;
73642;SDS011;61938;48.652;9.292;2023-09-08T09:01:22;11.10;;;8.00;;
73642;SDS011;61938;48.652;9.292;2023-09-08T09:03:50;19.20;;;8.60;;
73642;SDS011;61938;48.652;9.292;2023-09-08T09:06:17;10.70;;;7.30;;
73642;SDS011;61938;48.652;9.292;2023-09-08T09:08:43;27.45;;;8.27;;
73642;SDS011;61938;48.652;9.292;2023-09-08T09:11:09;11.70;;;7.07;;
73642;SDS011;61938;48.652;9.292;2023-09-08T09:13:35;13.65;;;7.18;;
73642;SDS011;61938;48.652;9.292;2023-09-08T09:16:02;14.15;;;7.82;;
73642;SDS011;61938;48.652;9.292;2023-09-08T09:18:31;15.00;;;6.90;;
73642;SDS011;61938;48.652;9.292;2023-09-08T09:20:59;11.75;;;6.93;;
73642;SDS011;61938;48.652;9.292;2023-09-08T09:23:29;15.07;;;7.25;;
73642;SDS011;61938;48.652;9.292;2023-09-08T09:25:56;11.20;;;6.97;;
73642;SDS011;61938;48.652;9.292;2023-09-08T09:28:22;12.60;;;6.20;;
73642;SDS011;61938;48.652;9.292;2023-09-08T09:30:48;10.85;;;6.53;;
73642;SDS011;61938;48.652;9.292;2023-09-08T09:33:16;11.40;;;7.32;;
73642;SDS011;61938;48.652;9.292;2023-09-08T09:35:42;13.35;;;7.22;;
73642;SDS011;61938;48.652;9.292;2023-09-08T09:38:11;13.95;;;7.32;;
73642;SDS011;61938;48.652;9.292;2023-09-08T09:40:37;14.18;;;6.28;;
73642;SDS011;61938;48.652;9.292;2023-09-08T09:43:03;15.95;;;8.10;;
73642;SDS011;61938;48.652;9.292;2023-09-08T09:45:30;10.88;;;7.00;;
73642;SDS011;61938;48.652;9.292;2023-09-08T09:47:58;11.38;;;6.93;;
73642;SDS011;61938;48.652;9.292;2023-09-08T09:50:33;11.15;;;7.35;;
73642;SDS011;61938;48.652;9.292;2023-09-08T09:53:00;16.00;;;6.55;;
73642;SDS011;61938;48.652;9.292;2023-09-08T09:55:28;9.80;;;6.63;;
73642;SDS011;61938;48.652;9.292;2023-09-08T09:57:57;12.18;;;7.15;;
73642;SDS011;61938;48.652;9.292;2023-09-08T10:00:25;10.43;;;6.90;;
73642;SDS011;61938;48.652;9.292;2023-09-08T10:02:51;10.80;;;6.90;;
73642;SDS011;61938;48.652;9.292;2023-09-08T10:05:18;9.77;;;6.30;;
73642;SDS011;61938;48.652;9.292;2023-09-08T10:07:44;11.07;;;6.63;;
73642;SDS011;61938;48.652;9.292;2023-09-08T10:10:12;10.70;;;6.68;;
73642;SDS011;61938;48.652;9.292;2023-09-08T10:12:38;16.35;;;7.28;;
73642;SDS011;61938;48.652;9.292;2023-09-08T10:15:06;12.77;;;7.07;;
73642;SDS011;61938;48.652;9.292;2023-09-08T10:17:34;10.23;;;7.18;;
73642;SDS011;61938;48.652;9.292;2023-09-08T10:20:01;12.93;;;6.55;;
73642;SDS011;61938;48.652;9.292;2023-09-08T10:22:35;8.70;;;7.00;;
73642;SDS011;61938;48.652;9.292;2023-09-08T10:25:03;12.13;;;7.40;;
73642;SDS011;61938;48.652;9.292;2023-09-08T10:27:30;12.57;;;7.03;;
73642;SDS011;61938;48.652;9.292;2023-09-08T10:29:57;7.95;;;6.47;;
73642;SDS011;61938;48.652;9.292;2023-09-08T10:32:25;8.38;;;6.15;;
73642;SDS011;61938;48.652;9.292;2023-09-08T10:34:51;19.60;;;6.75;;
73642;SDS011;61938;48.652;9.292;2023-09-08T10:37:19;11.50;;;6.43;;
73642;SDS011;61938;48.652;9.292;2023-09-08T10:39:45;10.32;;;7.38;;
73642;SDS011;61938;48.652;9.292;2023-09-08T10:47:19;10.63;;;7.00;;
73642;SDS011;61938;48.652;9.292;2023-09-08T10:49:55;14.23;;;7.47;;
73642;SDS011;61938;48.652;9.292;2023-09-08T10:52:22;10.48;;;7.75;;
73642;SDS011;61938;48.652;9.292;2023-09-08T10:54:50;11.10;;;6.68;;
73642;SDS011;61938;48.652;9.292;2023-09-08T10:57:18;13.05;;;6.70;;
73642;SDS011;61938;48.652;9.292;2023-09-08T11:02:33;8.93;;;6.60;;
73642;SDS011;61938;48.652;9.292;2023-09-08T11:05:00;11.15;;;6.10;;
73642;SDS011;61938;48.652;9.292;2023-09-08T11:07:26;10.32;;;6.57;;
73642;SDS011;61938;48.652;9.292;2023-09-08T11:09:52;10.23;;;7.32;;
73642;SDS011;61938;48.652;9.292;2023-09-08T11:12:18;12.18;;;6.72;;
73642;SDS011;61938;48.652;9.292;2023-09-08T11:14:43;7.53;;;6.15;;
73642;SDS011;61938;48.652;9.292;2023-09-08T11:17:09;9.00;;;6.70;;
73642;SDS011;61938;48.652;9.292;2023-09-08T11:19:47;11.20;;;6.78;;
73642;SDS011;61938;48.652;9.292;2023-09-08T11:22:14;10.43;;;6.60;;
73642;SDS011;61938;48.652;9.292;2023-09-08T11:24:44;7.40;;;6.30;;
73642;SDS011;61938;48.652;9.292;2023-09-08T11:27:10;11.45;;;6.68;;
73642;SDS011;61938;48.652;9.292;2023-09-08T11:29:37;8.98;;;7.32;;
73642;SDS011;61938;48.652;9.292;2023-09-08T11:32:05;8.25;;;6.53;;
73642;SDS011;61938;48.652;9.292;2023-09-08T11:34:34;11.18;;;6.90;;
73642;SDS011;61938;48.652;9.292;2023-09-08T11:37:05;9.05;;;6.30;;
73642;SDS011;61938;48.652;9.292;2023-09-08T11:39:35;7.97;;;6.28;;
73642;SDS011;61938;48.652;9.292;2023-09-08T11:42:02;12.00;;;6.80;;
73642;SDS011;61938;48.652;9.292;2023-09-08T11:44:28;10.98;;;6.60;;
73642;SDS011;61938;48.652;9.292;2023-09-08T11:46:54;12.50;;;6.93;;
73642;SDS011;61938;48.652;9.292;2023-09-08T11:49:19;11.93;;;6.38;;
73642;SDS011;61938;48.652;9.292;2023-09-08T11:51:47;9.35;;;7.03;;
73642;SDS011;61938;48.652;9.292;2023-09-08T11:54:13;10.60;;;6.68;;
73642;SDS011;61938;48.652;9.292;2023-09-08T11:56:39;10.55;;;6.40;;
73642;SDS011;61938;48.652;9.292;2023-09-08T11:59:05;8.35;;;6.35;;
73642;SDS011;61938;48.652;9.292;2023-09-08T12:01:32;9.50;;;6.40;;
73642;SDS011;61938;48.652;9.292;2023-09-08T12:03:57;8.50;;;5.85;;
73642;SDS011;61938;48.652;9.292;2023-09-08T12:06:24;8.15;;;6.22;;
73642;SDS011;61938;48.652;9.292;2023-09-08T12:08:53;12.40;;;7.22;;
73642;SDS011;61938;48.652;9.292;2023-09-08T12:11:20;10.27;;;6.68;;
73642;SDS011;61938;48.652;9.292;2023-09-08T12:13:46;12.73;;;6.55;;
73642;SDS011;61938;48.652;9.292;2023-09-08T12:16:21;11.75;;;7.07;;
73642;SDS011;61938;48.652;9.292;2023-09-08T12:18:49;10.65;;;6.35;;
73642;SDS011;61938;48.652;9.292;2023-09-08T12:21:16;9.05;;;6.30;;
73642;SDS011;61938;48.652;9.292;2023-09-08T12:23:48;11.25;;;6.90;;
73642;SDS011;61938;48.652;9.292;2023-09-08T12:26:15;9.05;;;5.82;;
73642;SDS011;61938;48.652;9.292;2023-09-08T12:28:44;9.60;;;5.82;;
73642;SDS011;61938;48.652;9.292;2023-09-08T12:31:13;9.80;;;5.85;;
73642;SDS011;61938;48.652;9.292;2023-09-08T12:33:39;10.05;;;6.25;;
73642;SDS011;61938;48.652;9.292;2023-09-08T12:36:17;9.25;;;5.80;;
73642;SDS011;61938;48.652;9.292;2023-09-08T12:38:47;10.57;;;5.35;;
73642;SDS011;61938;48.652;9.292;2023-09-08T12:41:14;13.15;;;6.72;;
73642;SDS011;61938;48.652;9.292;2023-09-08T12:43:40;12.55;;;6.68;;
73642;SDS011;61938;48.652;9.292;2023-09-08T12:46:06;9.45;;;6.00;;
73642;SDS011;61938;48.652;9.292;2023-09-08T12:48:31;8.77;;;6.45;;
73642;SDS011;61938;48.652;9.292;2023-09-08T12:50:57;10.27;;;6.82;;
73642;SDS011;61938;48.652;9.292;2023-09-08T12:53:23;10.40;;;6.43;;
73642;SDS011;61938;48.652;9.292;2023-09-08T12:55:49;11.85;;;6.68;;
73642;SDS011;61938;48.652;9.292;2023-09-08T12:58:15;9.85;;;6.60;;
73642;SDS011;61938;48.652;9.292;2023-09-08T13:00:42;8.15;;;6.28;;
73642;SDS011;61938;48.652;9.292;2023-09-08T13:03:08;10.02;;;6.63;;
73642;SDS011;61938;48.652;9.292;2023-09-08T13:05:34;9.35;;;6.28;;
73642;SDS011;61938;48.652;9.292;2023-09-08T13:08:00;8.90;;;6.05;;
73642;SDS011;61938;48.652;9.292;2023-09-08T13:10:26;10.30;;;7.07;;
73642;SDS011;61938;48.652;9.292;2023-09-08T13:12:51;10.80;;;6.72;;
73642;SDS011;61938;48.652;9.292;2023-09-08T13:15:17;12.73;;;7.40;;
73642;SDS011;61938;48.652;9.292;2023-09-08T13:17:42;10.93;;;6.88;;
73642;SDS011;61938;48.652;9.292;2023-09-08T13:20:08;9.70;;;6.80;;
73642;SDS011;61938;48.652;9.292;2023-09-08T13:25:21;8.57;;;6.78;;
73642;SDS011;61938;48.652;9.292;2023-09-08T13:27:47;14.90;;;6.90;;
73642;SDS011;61938;48.652;9.292;2023-09-08T13:30:13;10.98;;;7.03;;
73642;SDS011;61938;48.652;9.292;2023-09-08T13:32:40;12.00;;;7.15;;
73642;SDS011;61938;48.652;9.292;2023-09-08T13:35:06;11.25;;;7.28;;
73642;SDS011;61938;48.652;9.292;2023-09-08T13:37:32;12.02;;;7.35;;
73642;SDS011;61938;48.652;9.292;2023-09-08T13:39:59;15.43;;;7.68;;
73642;SDS011;61938;48.652;9.292;2023-09-08T13:42:25;11.95;;;6.50;;
73642;SDS011;61938;48.652;9.292;2023-09-08T13:44:51;8.48;;;6.93;;
73642;SDS011;61938;48.652;9.292;2023-09-08T13:47:16;10.30;;;7.50;;
73642;SDS011;61938;48.652;9.292;2023-09-08T13:49:42;11.35;;;7.10;;
73642;SDS011;61938;48.652;9.292;2023-09-08T13:52:07;16.17;;;6.72;;
73642;SDS011;61938;48.652;9.292;2023-09-08T13:54:33;25.52;;;7.35;;
73642;SDS011;61938;48.652;9.292;2023-09-08T13:57:02;12.05;;;6.72;;
73642;SDS011;61938;48.652;9.292;2023-09-08T13:59:29;12.95;;;6.85;;
73642;SDS011;61938;48.652;9.292;2023-09-08T14:01:55;8.05;;;6.32;;
73642;SDS011;61938;48.652;9.292;2023-09-08T14:04:22;10.45;;;7.47;;
73642;SDS011;61938;48.652;9.292;2023-09-08T14:06:48;8.73;;;6.57;;
73642;SDS011;61938;48.652;9.292;2023-09-08T14:09:14;12.63;;;6.38;;
73642;SDS011;61938;48.652;9.292;2023-09-08T14:11:40;8.80;;;6.47;;
73642;SDS011;61938;48.652;9.292;2023-09-08T14:14:05;14.35;;;6.10;;
73642;SDS011;61938;48.652;9.292;2023-09-08T14:16:31;9.43;;;6.95;;
73642;SDS011;61938;48.652;9.292;2023-09-08T14:18:56;15.48;;;6.65;;
73642;SDS011;61938;48.652;9.292;2023-09-08T14:21:22;12.40;;;6.43;;
73642;SDS011;61938;48.652;9.292;2023-09-08T14:23:48;14.30;;;6.00;;
73642;SDS011;61938;48.652;9.292;2023-09-08T14:26:13;8.57;;;5.78;;
73642;SDS011;61938;48.652;9.292;2023-09-08T14:28:39;11.70;;;6.57;;
73642;SDS011;61938;48.652;9.292;2023-09-08T14:31:04;10.15;;;6.15;;
73642;SDS011;61938;48.652;9.292;2023-09-08T14:33:30;12.23;;;6.28;;
73642;SDS011;61938;48.652;9.292;2023-09-08T14:35:56;10.60;;;6.32;;
73642;SDS011;61938;48.652;9.292;2023-09-08T14:38:22;6.80;;;5.50;;